sensor_id;sensor_type;location;lat;lon;timestamp;pressure;altitude;pressure_sealevel;temperature;humidity
829;BME280;396;52.558;13.188;2024-01-30T00:01:52;102388.66;;;1.97;92.67
829;BME280;396;52.558;13.188;2024-01-30T00:04:18;102388.41;;;1.92;92.38
829;BME280;396;52.558;13.188;2024-01-30T00:06:46;102392.31;;;1.89;93.08
829;BME280;396;52.558;13.188;2024-01-30T00:09:13;102393.13;;;1.90;92.97
829;BME280;396;52.558;13.188;2024-01-30T00:11:40;102387.78;;;1.90;93.01
829;BME280;396;52.558;13.188;2024-01-30T00:14:07;102382.63;;;1.82;92.35
829;BME280;396;52.558;13.188;2024-01-30T00:16:33;102386.50;;;1.79;92.92
829;BME280;396;52.558;13.188;2024-01-30T00:19:00;102393.69;;;1.79;93.05
829;BME280;396;52.558;13.188;2024-01-30T00:21:27;102386.50;;;1.79;92.76
829;BME280;396;52.558;13.188;2024-01-30T00:23:55;102380.94;;;1.81;93.06
829;BME280;396;52.558;13.188;2024-01-30T00:26:22;102384.44;;;1.81;93.92
829;BME280;396;52.558;13.188;2024-01-30T00:28:48;102379.53;;;1.78;94.75
829;BME280;396;52.558;13.188;2024-01-30T00:31:15;102380.94;;;1.81;95.26
829;BME280;396;52.558;13.188;2024-01-30T00:33:42;102379.97;;;1.82;95.79
829;BME280;396;52.558;13.188;2024-01-30T00:36:09;102374.19;;;1.85;95.71
829;BME280;396;52.558;13.188;2024-01-30T00:38:37;102373.38;;;1.84;95.86
829;BME280;396;52.558;13.188;2024-01-30T00:41:05;102378.28;;;1.81;96.48
829;BME280;396;52.558;13.188;2024-01-30T00:43:31;102376.25;;;1.83;96.95
829;BME280;396;52.558;13.188;2024-01-30T00:45:58;102376.88;;;1.85;96.52
829;BME280;396;52.558;13.188;2024-01-30T00:48:25;102374.19;;;1.85;96.88
829;BME280;396;52.558;13.188;2024-01-30T00:50:51;102366.81;;;1.87;96.63
829;BME280;396;52.558;13.188;2024-01-30T00:53:18;102371.50;;;1.78;97.21
829;BME280;396;52.558;13.188;2024-01-30T00:55:45;102375.38;;;1.75;97.37
829;BME280;396;52.558;13.188;2024-01-30T00:58:13;102378.25;;;1.74;96.74
829;BME280;396;52.558;13.188;2024-01-30T01:00:39;102373.75;;;1.74;96.20
829;BME280;396;52.558;13.188;2024-01-30T01:03:06;102377.44;;;1.73;95.68
829;BME280;396;52.558;13.188;2024-01-30T01:05:32;102372.69;;;1.69;94.98
829;BME280;396;52.558;13.188;2024-01-30T01:07:59;102369.81;;;1.70;94.37
829;BME280;396;52.558;13.188;2024-01-30T01:10:26;102378.44;;;1.72;94.54
829;BME280;396;52.558;13.188;2024-01-30T01:12:53;102387.53;;;1.78;94.34
829;BME280;396;52.558;13.188;2024-01-30T01:15:21;102382.78;;;1.73;94.54
829;BME280;396;52.558;13.188;2024-01-30T01:17:48;102380.94;;;1.81;95.06
829;BME280;396;52.558;13.188;2024-01-30T01:20:14;102385.31;;;1.88;95.71
829;BME280;396;52.558;13.188;2024-01-30T01:22:41;102376.75;;;1.99;95.94
829;BME280;396;52.558;13.188;2024-01-30T01:25:08;102378.19;;;2.02;96.20
829;BME280;396;52.558;13.188;2024-01-30T01:27:35;102372.88;;;2.09;95.60
829;BME280;396;52.558;13.188;2024-01-30T01:30:07;102380.47;;;2.12;95.60
829;BME280;396;52.558;13.188;2024-01-30T01:32:36;102378.63;;;2.12;94.97
829;BME280;396;52.558;13.188;2024-01-30T01:35:04;102378.88;;;2.17;95.46
829;BME280;396;52.558;13.188;2024-01-30T01:37:30;102379.69;;;2.24;95.38
829;BME280;396;52.558;13.188;2024-01-30T01:39:57;102380.13;;;2.28;94.60
829;BME280;396;52.558;13.188;2024-01-30T01:42:24;102372.31;;;2.33;94.24
829;BME280;396;52.558;13.188;2024-01-30T01:44:50;102375.19;;;2.38;93.46
829;BME280;396;52.558;13.188;2024-01-30T01:47:17;102371.91;;;2.43;92.92
829;BME280;396;52.558;13.188;2024-01-30T01:49:45;102367.00;;;2.46;92.53
829;BME280;396;52.558;13.188;2024-01-30T01:52:11;102372.78;;;2.50;93.03
829;BME280;396;52.558;13.188;2024-01-30T01:54:37;102373.59;;;2.50;92.56
829;BME280;396;52.558;13.188;2024-01-30T01:57:04;102375.22;;;2.51;92.68
829;BME280;396;52.558;13.188;2024-01-30T01:59:32;102372.56;;;2.51;91.88
829;BME280;396;52.558;13.188;2024-01-30T02:01:59;102375.66;;;2.48;91.88
829;BME280;396;52.558;13.188;2024-01-30T02:04:26;102374.41;;;2.51;91.76
829;BME280;396;52.558;13.188;2024-01-30T02:06:54;102385.09;;;2.51;92.38
829;BME280;396;52.558;13.188;2024-01-30T02:09:21;102382.88;;;2.48;93.46
829;BME280;396;52.558;13.188;2024-01-30T02:11:48;102384.69;;;2.47;94.28
829;BME280;396;52.558;13.188;2024-01-30T02:14:15;102374.22;;;2.52;94.00
829;BME280;396;52.558;13.188;2024-01-30T02:16:41;102377.28;;;2.56;94.19
829;BME280;396;52.558;13.188;2024-01-30T02:19:08;102374.00;;;2.54;94.31
829;BME280;396;52.558;13.188;2024-01-30T02:21:36;102374.63;;;2.56;94.37
829;BME280;396;52.558;13.188;2024-01-30T02:24:03;102381.00;;;2.55;94.41
829;BME280;396;52.558;13.188;2024-01-30T02:26:31;102379.78;;;2.58;94.83
829;BME280;396;52.558;13.188;2024-01-30T02:28:57;102373.81;;;2.62;94.69
829;BME280;396;52.558;13.188;2024-01-30T02:31:25;102379.19;;;2.62;94.42
829;BME280;396;52.558;13.188;2024-01-30T02:33:51;102388.84;;;2.63;94.44
829;BME280;396;52.558;13.188;2024-01-30T02:36:18;102384.31;;;2.64;94.65
829;BME280;396;52.558;13.188;2024-01-30T02:38:46;102386.78;;;2.72;94.44
829;BME280;396;52.558;13.188;2024-01-30T02:41:12;102376.31;;;2.70;93.45
829;BME280;396;52.558;13.188;2024-01-30T02:43:39;102378.56;;;2.67;91.96
829;BME280;396;52.558;13.188;2024-01-30T02:46:06;102364.78;;;2.63;91.50
829;BME280;396;52.558;13.188;2024-01-30T02:48:33;102369.28;;;2.63;91.46
829;BME280;396;52.558;13.188;2024-01-30T02:50:59;102370.34;;;2.62;91.44
829;BME280;396;52.558;13.188;2024-01-30T02:53:26;102367.22;;;2.65;91.67
829;BME280;396;52.558;13.188;2024-01-30T02:55:54;102355.94;;;2.63;91.29
829;BME280;396;52.558;13.188;2024-01-30T02:58:20;102366.00;;;2.61;90.80
829;BME280;396;52.558;13.188;2024-01-30T03:00:47;102361.69;;;2.66;90.85
829;BME280;396;52.558;13.188;2024-01-30T03:03:13;102365.81;;;2.62;90.83
829;BME280;396;52.558;13.188;2024-01-30T03:05:40;102360.25;;;2.57;90.79
829;BME280;396;52.558;13.188;2024-01-30T03:08:07;102362.06;;;2.50;90.70
829;BME280;396;52.558;13.188;2024-01-30T03:10:33;102356.50;;;2.45;90.72
829;BME280;396;52.558;13.188;2024-01-30T03:13:01;102356.13;;;2.48;91.23
829;BME280;396;52.558;13.188;2024-01-30T03:15:28;102358.16;;;2.46;91.44
829;BME280;396;52.558;13.188;2024-01-30T03:17:54;102349.31;;;2.45;90.99
829;BME280;396;52.558;13.188;2024-01-30T03:20:21;102347.25;;;2.41;90.90
829;BME280;396;52.558;13.188;2024-01-30T03:22:47;102346.44;;;2.40;91.07
829;BME280;396;52.558;13.188;2024-01-30T03:25:14;102345.59;;;2.40;91.19
829;BME280;396;52.558;13.188;2024-01-30T03:27:41;102350.53;;;2.43;91.43
829;BME280;396;52.558;13.188;2024-01-30T03:30:09;102343.53;;;2.35;92.16
829;BME280;396;52.558;13.188;2024-01-30T03:32:36;102342.69;;;2.28;93.14
829;BME280;396;52.558;13.188;2024-01-30T03:35:03;102338.56;;;2.19;93.72
829;BME280;396;52.558;13.188;2024-01-30T03:37:29;102344.13;;;2.17;94.13
829;BME280;396;52.558;13.188;2024-01-30T03:39:56;102333.81;;;2.21;94.23
829;BME280;396;52.558;13.188;2024-01-30T03:42:23;102343.25;;;2.17;94.39
829;BME280;396;52.558;13.188;2024-01-30T03:44:49;102334.22;;;2.11;94.95
829;BME280;396;52.558;13.188;2024-01-30T03:47:18;102333.59;;;2.09;95.46
829;BME280;396;52.558;13.188;2024-01-30T03:49:45;102340.16;;;2.07;95.65
829;BME280;396;52.558;13.188;2024-01-30T03:52:12;102338.13;;;2.09;96.08
829;BME280;396;52.558;13.188;2024-01-30T03:54:39;102343.66;;;2.07;95.64
829;BME280;396;52.558;13.188;2024-01-30T03:57:05;102344.84;;;1.98;95.85
829;BME280;396;52.558;13.188;2024-01-30T03:59:32;102337.66;;;1.98;95.35
829;BME280;396;52.558;13.188;2024-01-30T04:01:59;102336.03;;;1.97;94.81
829;BME280;396;52.558;13.188;2024-01-30T04:04:27;102340.31;;;1.92;94.48
829;BME280;396;52.558;13.188;2024-01-30T04:06:54;102343.59;;;1.87;94.53
829;BME280;396;52.558;13.188;2024-01-30T04:09:20;102347.47;;;1.78;93.86
829;BME280;396;52.558;13.188;2024-01-30T04:11:47;102340.03;;;1.73;94.00
829;BME280;396;52.558;13.188;2024-01-30T04:14:14;102349.28;;;1.71;94.28
829;BME280;396;52.558;13.188;2024-01-30T04:16:40;102337.69;;;1.57;94.42
829;BME280;396;52.558;13.188;2024-01-30T04:19:07;102334.16;;;1.50;94.27
829;BME280;396;52.558;13.188;2024-01-30T04:21:35;102335.84;;;1.51;94.44
829;BME280;396;52.558;13.188;2024-01-30T04:24:02;102333.78;;;1.53;94.62
829;BME280;396;52.558;13.188;2024-01-30T04:26:28;102336.06;;;1.56;94.89
829;BME280;396;52.558;13.188;2024-01-30T04:28:55;102335.41;;;1.54;95.95
829;BME280;396;52.558;13.188;2024-01-30T04:31:21;102340.75;;;1.54;96.89
829;BME280;396;52.558;13.188;2024-01-30T04:33:48;102330.94;;;1.61;97.06
829;BME280;396;52.558;13.188;2024-01-30T04:36:15;102329.91;;;1.62;97.50
829;BME280;396;52.558;13.188;2024-01-30T04:38:43;102330.13;;;1.67;97.70
829;BME280;396;52.558;13.188;2024-01-30T04:41:09;102328.53;;;1.73;97.42
829;BME280;396;52.558;13.188;2024-01-30T04:43:36;102325.28;;;1.84;97.48
829;BME280;396;52.558;13.188;2024-01-30T04:46:04;102326.53;;;1.88;97.37
829;BME280;396;52.558;13.188;2024-01-30T04:48:30;102335.38;;;1.89;97.54
829;BME280;396;52.558;13.188;2024-01-30T04:50:57;102332.75;;;1.95;97.15
829;BME280;396;52.558;13.188;2024-01-30T04:53:23;102336.84;;;1.98;96.98
829;BME280;396;52.558;13.188;2024-01-30T04:55:51;102332.31;;;1.98;96.51
829;BME280;396;52.558;13.188;2024-01-30T04:58:18;102334.59;;;1.95;96.22
829;BME280;396;52.558;13.188;2024-01-30T05:00:45;102339.72;;;1.96;95.99
829;BME280;396;52.558;13.188;2024-01-30T05:03:16;102329.25;;;2.01;95.86
829;BME280;396;52.558;13.188;2024-01-30T05:05:43;102327.44;;;2.09;95.87
829;BME280;396;52.558;13.188;2024-01-30T05:08:10;102324.75;;;2.09;95.70
829;BME280;396;52.558;13.188;2024-01-30T05:10:36;102322.50;;;2.12;96.26
829;BME280;396;52.558;13.188;2024-01-30T05:13:04;102324.97;;;2.20;96.39
829;BME280;396;52.558;13.188;2024-01-30T05:15:31;102325.84;;;2.27;96.50
829;BME280;396;52.558;13.188;2024-01-30T05:17:57;102318.44;;;2.36;96.47
829;BME280;396;52.558;13.188;2024-01-30T05:20:24;102326.25;;;2.38;96.59
829;BME280;396;52.558;13.188;2024-01-30T05:22:53;102326.69;;;2.41;96.42
829;BME280;396;52.558;13.188;2024-01-30T05:25:20;102327.91;;;2.45;96.27
829;BME280;396;52.558;13.188;2024-01-30T05:27:46;102322.56;;;2.45;96.63
829;BME280;396;52.558;13.188;2024-01-30T05:30:14;102323.00;;;2.49;96.11
829;BME280;396;52.558;13.188;2024-01-30T05:32:41;102319.28;;;2.50;96.14
829;BME280;396;52.558;13.188;2024-01-30T05:35:08;102315.56;;;2.51;96.22
829;BME280;396;52.558;13.188;2024-01-30T05:37:34;102323.81;;;2.56;95.94
829;BME280;396;52.558;13.188;2024-01-30T05:40:01;102320.31;;;2.56;95.85
829;BME280;396;52.558;13.188;2024-01-30T05:42:28;102316.38;;;2.51;95.53
829;BME280;396;52.558;13.188;2024-01-30T05:44:54;102317.63;;;2.49;95.08
829;BME280;396;52.558;13.188;2024-01-30T05:47:22;102313.94;;;2.50;94.61
829;BME280;396;52.558;13.188;2024-01-30T05:49:49;102317.84;;;2.54;94.36
829;BME280;396;52.558;13.188;2024-01-30T05:52:15;102315.78;;;2.49;93.77
829;BME280;396;52.558;13.188;2024-01-30T05:54:44;102316.81;;;2.42;93.47
829;BME280;396;52.558;13.188;2024-01-30T05:57:10;102312.28;;;2.49;93.33
829;BME280;396;52.558;13.188;2024-01-30T05:59:37;102311.66;;;2.47;93.05
829;BME280;396;52.558;13.188;2024-01-30T06:02:03;102313.50;;;2.46;92.78
829;BME280;396;52.558;13.188;2024-01-30T06:04:31;102313.53;;;2.53;93.63
829;BME280;396;52.558;13.188;2024-01-30T06:06:58;102302.00;;;2.59;93.22
829;BME280;396;52.558;13.188;2024-01-30T06:09:27;102304.91;;;2.58;92.46
829;BME280;396;52.558;13.188;2024-01-30T06:11:53;102301.59;;;2.62;92.05
829;BME280;396;52.558;13.188;2024-01-30T06:14:20;102300.16;;;2.60;91.55
829;BME280;396;52.558;13.188;2024-01-30T06:16:46;102303.44;;;2.55;90.81
829;BME280;396;52.558;13.188;2024-01-30T06:19:13;102308.19;;;2.53;91.51
829;BME280;396;52.558;13.188;2024-01-30T06:21:41;102304.69;;;2.59;91.51
829;BME280;396;52.558;13.188;2024-01-30T06:24:07;102309.22;;;2.59;91.26
829;BME280;396;52.558;13.188;2024-01-30T06:26:34;102314.34;;;2.60;90.84
829;BME280;396;52.558;13.188;2024-01-30T06:29:01;102306.31;;;2.60;90.84
829;BME280;396;52.558;13.188;2024-01-30T06:31:27;102312.72;;;2.66;91.01
829;BME280;396;52.558;13.188;2024-01-30T06:33:54;102314.97;;;2.62;91.31
829;BME280;396;52.558;13.188;2024-01-30T06:36:21;102309.00;;;2.67;91.58
829;BME280;396;52.558;13.188;2024-01-30T06:38:48;102309.44;;;2.70;92.27
829;BME280;396;52.558;13.188;2024-01-30T06:41:15;102311.28;;;2.76;92.59
829;BME280;396;52.558;13.188;2024-01-30T06:43:42;102311.47;;;2.82;92.68
829;BME280;396;52.558;13.188;2024-01-30T06:46:10;102311.88;;;2.85;92.66
829;BME280;396;52.558;13.188;2024-01-30T06:48:37;102305.69;;;2.91;92.79
829;BME280;396;52.558;13.188;2024-01-30T06:51:05;102301.78;;;2.94;92.74
829;BME280;396;52.558;13.188;2024-01-30T06:53:32;102302.41;;;2.96;92.28
829;BME280;396;52.558;13.188;2024-01-30T06:56:00;102299.53;;;2.97;92.62
829;BME280;396;52.558;13.188;2024-01-30T06:58:26;102305.25;;;3.01;92.69
829;BME280;396;52.558;13.188;2024-01-30T07:00:53;102306.09;;;3.08;92.63
829;BME280;396;52.558;13.188;2024-01-30T07:03:20;102303.41;;;3.08;92.58
829;BME280;396;52.558;13.188;2024-01-30T07:05:47;102307.13;;;3.07;92.70
829;BME280;396;52.558;13.188;2024-01-30T07:08:15;102298.25;;;3.13;91.93
829;BME280;396;52.558;13.188;2024-01-30T07:10:42;102297.84;;;3.10;90.69
829;BME280;396;52.558;13.188;2024-01-30T07:13:10;102296.19;;;3.09;89.42
829;BME280;396;52.558;13.188;2024-01-30T07:15:37;102292.09;;;3.06;89.19
829;BME280;396;52.558;13.188;2024-01-30T07:18:04;102298.06;;;3.08;88.95
829;BME280;396;52.558;13.188;2024-01-30T07:20:31;102303.00;;;3.11;88.81
829;BME280;396;52.558;13.188;2024-01-30T07:22:58;102298.25;;;3.13;88.83
829;BME280;396;52.558;13.188;2024-01-30T07:25:24;102291.66;;;3.16;87.87
829;BME280;396;52.558;13.188;2024-01-30T07:27:52;102287.53;;;3.13;87.70
829;BME280;396;52.558;13.188;2024-01-30T07:30:20;102291.25;;;3.12;87.89
829;BME280;396;52.558;13.188;2024-01-30T07:32:47;102292.31;;;3.11;88.52
829;BME280;396;52.558;13.188;2024-01-30T07:35:14;102293.94;;;3.19;88.49
829;BME280;396;52.558;13.188;2024-01-30T07:37:40;102294.72;;;3.26;89.66
829;BME280;396;52.558;13.188;2024-01-30T07:40:07;102297.19;;;3.34;89.96
829;BME280;396;52.558;13.188;2024-01-30T07:42:34;102294.47;;;3.41;89.68
829;BME280;396;52.558;13.188;2024-01-30T07:45:01;102297.56;;;3.44;89.10
829;BME280;396;52.558;13.188;2024-01-30T07:47:29;102297.31;;;3.52;88.50
829;BME280;396;52.558;13.188;2024-01-30T07:49:55;102294.00;;;3.57;88.64
829;BME280;396;52.558;13.188;2024-01-30T07:52:22;102297.31;;;3.59;88.41
829;BME280;396;52.558;13.188;2024-01-30T07:54:48;102296.47;;;3.65;88.04
829;BME280;396;52.558;13.188;2024-01-30T07:57:15;102302.63;;;3.72;87.96
829;BME280;396;52.558;13.188;2024-01-30T07:59:42;102304.84;;;3.75;86.91
829;BME280;396;52.558;13.188;2024-01-30T08:02:10;102301.94;;;3.84;87.38
829;BME280;396;52.558;13.188;2024-01-30T08:04:38;102295.34;;;3.86;86.77
829;BME280;396;52.558;13.188;2024-01-30T08:07:05;102301.09;;;3.90;86.77
829;BME280;396;52.558;13.188;2024-01-30T08:09:31;102299.19;;;3.97;86.84
829;BME280;396;52.558;13.188;2024-01-30T08:11:58;102303.31;;;3.99;86.37
829;BME280;396;52.558;13.188;2024-01-30T08:14:25;102306.16;;;4.04;85.97
829;BME280;396;52.558;13.188;2024-01-30T08:16:52;102306.41;;;4.03;84.78
829;BME280;396;52.558;13.188;2024-01-30T08:19:19;102300.38;;;4.08;84.72
829;BME280;396;52.558;13.188;2024-01-30T08:21:47;102307.78;;;4.12;84.48
829;BME280;396;52.558;13.188;2024-01-30T08:24:13;102299.25;;;4.22;84.47
829;BME280;396;52.558;13.188;2024-01-30T08:26:40;102308.06;;;4.29;84.59
829;BME280;396;52.558;13.188;2024-01-30T08:29:06;102297.75;;;4.33;84.13
829;BME280;396;52.558;13.188;2024-01-30T08:31:33;102290.09;;;4.36;84.08
829;BME280;396;52.558;13.188;2024-01-30T08:33:59;102287.16;;;4.44;83.35
829;BME280;396;52.558;13.188;2024-01-30T08:36:26;102298.03;;;4.49;82.90
829;BME280;396;52.558;13.188;2024-01-30T08:38:54;102289.75;;;4.51;82.83
829;BME280;396;52.558;13.188;2024-01-30T08:41:21;102289.94;;;4.56;82.93
829;BME280;396;52.558;13.188;2024-01-30T08:43:47;102287.63;;;4.60;82.83
829;BME280;396;52.558;13.188;2024-01-30T08:46:17;102289.22;;;4.67;82.63
829;BME280;396;52.558;13.188;2024-01-30T08:48:44;102293.28;;;4.76;82.04
829;BME280;396;52.558;13.188;2024-01-30T08:51:10;102294.06;;;4.84;81.87
829;BME280;396;52.558;13.188;2024-01-30T08:53:37;102289.50;;;4.84;82.52
829;BME280;396;52.558;13.188;2024-01-30T08:56:06;102296.88;;;4.89;82.54
829;BME280;396;52.558;13.188;2024-01-30T08:58:33;102287.94;;;4.95;81.77
829;BME280;396;52.558;13.188;2024-01-30T09:00:59;102284.38;;;5.01;81.60
829;BME280;396;52.558;13.188;2024-01-30T09:03:26;102289.69;;;5.07;80.63
829;BME280;396;52.558;13.188;2024-01-30T09:05:53;102286.31;;;5.12;80.28
829;BME280;396;52.558;13.188;2024-01-30T09:08:19;102281.09;;;5.17;79.26
829;BME280;396;52.558;13.188;2024-01-30T09:10:46;102281.03;;;5.24;78.64
829;BME280;396;52.558;13.188;2024-01-30T09:13:14;102275.81;;;5.29;77.93
829;BME280;396;52.558;13.188;2024-01-30T09:15:41;102282.81;;;5.30;78.63
829;BME280;396;52.558;13.188;2024-01-30T09:18:09;102284.25;;;5.32;77.97
829;BME280;396;52.558;13.188;2024-01-30T09:20:35;102280.66;;;5.39;78.23
829;BME280;396;52.558;13.188;2024-01-30T09:23:02;102289.09;;;5.42;78.18
829;BME280;396;52.558;13.188;2024-01-30T09:25:29;102286.13;;;5.50;77.64
829;BME280;396;52.558;13.188;2024-01-30T09:27:56;102280.06;;;5.55;77.25
829;BME280;396;52.558;13.188;2024-01-30T09:30:24;102283.47;;;5.62;77.14
829;BME280;396;52.558;13.188;2024-01-30T09:32:50;102275.88;;;5.59;76.35
829;BME280;396;52.558;13.188;2024-01-30T09:35:17;102281.25;;;5.59;76.14
829;BME280;396;52.558;13.188;2024-01-30T09:37:43;102278.72;;;5.64;76.02
829;BME280;396;52.558;13.188;2024-01-30T09:40:10;102281.78;;;5.68;76.25
829;BME280;396;52.558;13.188;2024-01-30T09:42:37;102277.78;;;5.70;75.88
829;BME280;396;52.558;13.188;2024-01-30T09:45:05;102278.53;;;5.77;76.07
829;BME280;396;52.558;13.188;2024-01-30T09:47:40;102280.31;;;5.83;75.68
829;BME280;396;52.558;13.188;2024-01-30T09:50:08;102285.81;;;5.89;75.25
829;BME280;396;52.558;13.188;2024-01-30T09:52:35;102272.63;;;5.87;74.67
829;BME280;396;52.558;13.188;2024-01-30T09:55:03;102274.66;;;5.92;74.80
829;BME280;396;52.558;13.188;2024-01-30T09:57:30;102277.03;;;6.00;74.49
829;BME280;396;52.558;13.188;2024-01-30T09:59:56;102273.97;;;5.96;73.79
829;BME280;396;52.558;13.188;2024-01-30T10:02:23;102270.59;;;6.01;73.71
829;BME280;396;52.558;13.188;2024-01-30T10:04:52;102259.38;;;6.04;73.88
829;BME280;396;52.558;13.188;2024-01-30T10:07:19;102264.06;;;6.09;73.88
829;BME280;396;52.558;13.188;2024-01-30T10:09:46;102259.88;;;6.13;73.96
829;BME280;396;52.558;13.188;2024-01-30T10:12:14;102270.19;;;6.16;73.99
829;BME280;396;52.558;13.188;2024-01-30T10:14:42;102266.34;;;6.23;73.55
829;BME280;396;52.558;13.188;2024-01-30T10:17:09;102272.44;;;6.30;72.34
829;BME280;396;52.558;13.188;2024-01-30T10:19:36;102269.31;;;6.34;72.60
829;BME280;396;52.558;13.188;2024-01-30T10:22:05;102267.78;;;6.38;71.98
829;BME280;396;52.558;13.188;2024-01-30T10:24:33;102263.81;;;6.52;70.84
829;BME280;396;52.558;13.188;2024-01-30T10:27:00;102272.97;;;6.63;69.68
829;BME280;396;52.558;13.188;2024-01-30T10:29:27;102274.03;;;6.73;69.66
829;BME280;396;52.558;13.188;2024-01-30T10:31:58;102273.44;;;6.83;68.95
829;BME280;396;52.558;13.188;2024-01-30T10:34:25;102269.34;;;6.92;67.53
829;BME280;396;52.558;13.188;2024-01-30T10:36:59;102258.44;;;6.99;67.63
829;BME280;396;52.558;13.188;2024-01-30T10:39:29;102258.44;;;6.99;67.61
829;BME280;396;52.558;13.188;2024-01-30T10:42:00;102256.34;;;7.01;66.72
829;BME280;396;52.558;13.188;2024-01-30T10:44:30;102252.59;;;7.02;66.16
829;BME280;396;52.558;13.188;2024-01-30T10:47:03;102254.22;;;7.03;66.63
829;BME280;396;52.558;13.188;2024-01-30T10:49:33;102255.50;;;7.12;67.00
829;BME280;396;52.558;13.188;2024-01-30T10:52:00;102251.00;;;7.29;66.04
829;BME280;396;52.558;13.188;2024-01-30T10:54:29;102263.50;;;7.47;65.46
829;BME280;396;52.558;13.188;2024-01-30T10:56:57;102257.63;;;7.62;64.75
829;BME280;396;52.558;13.188;2024-01-30T10:59:29;102256.75;;;7.73;63.36
829;BME280;396;52.558;13.188;2024-01-30T11:01:57;102262.09;;;7.85;62.63
829;BME280;396;52.558;13.188;2024-01-30T11:04:24;102259.50;;;7.90;63.71
829;BME280;396;52.558;13.188;2024-01-30T11:06:51;102263.88;;;8.08;64.12
829;BME280;396;52.558;13.188;2024-01-30T11:09:18;102262.41;;;8.17;63.96
829;BME280;396;52.558;13.188;2024-01-30T11:11:56;102260.22;;;8.31;61.46
829;BME280;396;52.558;13.188;2024-01-30T11:14:25;102254.44;;;8.39;60.91
829;BME280;396;52.558;13.188;2024-01-30T11:16:52;102264.03;;;8.47;60.75
829;BME280;396;52.558;13.188;2024-01-30T11:19:22;102251.09;;;8.49;61.16
829;BME280;396;52.558;13.188;2024-01-30T11:21:50;102253.31;;;8.52;60.75
829;BME280;396;52.558;13.188;2024-01-30T11:24:19;102252.81;;;8.55;60.32
829;BME280;396;52.558;13.188;2024-01-30T11:26:46;102256.41;;;8.61;60.52
829;BME280;396;52.558;13.188;2024-01-30T11:29:14;102254.69;;;8.71;60.80
829;BME280;396;52.558;13.188;2024-01-30T11:31:40;102248.78;;;8.74;59.50
829;BME280;396;52.558;13.188;2024-01-30T11:34:18;102246.66;;;8.76;60.28
829;BME280;396;52.558;13.188;2024-01-30T11:36:51;102241.50;;;8.75;60.04
829;BME280;396;52.558;13.188;2024-01-30T11:39:20;102251.81;;;8.78;59.79
829;BME280;396;52.558;13.188;2024-01-30T11:41:47;102247.66;;;8.70;61.02
829;BME280;396;52.558;13.188;2024-01-30T11:44:18;102237.66;;;8.71;59.78
829;BME280;396;52.558;13.188;2024-01-30T11:46:46;102251.22;;;8.76;60.14
829;BME280;396;52.558;13.188;2024-01-30T11:49:13;102247.31;;;8.83;59.66
829;BME280;396;52.558;13.188;2024-01-30T11:51:39;102238.78;;;8.92;58.99
829;BME280;396;52.558;13.188;2024-01-30T11:54:07;102238.28;;;8.95;59.21
829;BME280;396;52.558;13.188;2024-01-30T11:56:34;102230.25;;;9.00;59.31
829;BME280;396;52.558;13.188;2024-01-30T11:59:01;102236.25;;;9.07;58.42
829;BME280;396;52.558;13.188;2024-01-30T12:01:29;102234.16;;;9.09;59.63
829;BME280;396;52.558;13.188;2024-01-30T12:03:55;102228.81;;;9.14;58.72
829;BME280;396;52.558;13.188;2024-01-30T12:06:23;102219.19;;;9.23;59.02
829;BME280;396;52.558;13.188;2024-01-30T12:08:57;102217.63;;;9.27;58.79
829;BME280;396;52.558;13.188;2024-01-30T12:11:24;102213.28;;;9.26;58.36
829;BME280;396;52.558;13.188;2024-01-30T12:13:51;102213.78;;;9.23;58.95
829;BME280;396;52.558;13.188;2024-01-30T12:16:19;102212.22;;;9.27;58.60
829;BME280;396;52.558;13.188;2024-01-30T12:18:47;102209.63;;;9.38;58.40
829;BME280;396;52.558;13.188;2024-01-30T12:21:16;102201.38;;;9.49;59.00
829;BME280;396;52.558;13.188;2024-01-30T12:23:43;102194.13;;;9.55;58.18
829;BME280;396;52.558;13.188;2024-01-30T12:26:09;102194.94;;;9.55;57.64
829;BME280;396;52.558;13.188;2024-01-30T12:28:36;102187.34;;;9.52;57.94
829;BME280;396;52.558;13.188;2024-01-30T12:31:03;102179.28;;;9.57;58.15
829;BME280;396;52.558;13.188;2024-01-30T12:33:30;102177.19;;;9.65;57.93
829;BME280;396;52.558;13.188;2024-01-30T12:36:01;102182.66;;;9.70;58.16
829;BME280;396;52.558;13.188;2024-01-30T12:38:28;102179.88;;;9.65;56.95
829;BME280;396;52.558;13.188;2024-01-30T12:40:55;102176.41;;;9.69;58.04
829;BME280;396;52.558;13.188;2024-01-30T12:43:22;102172.28;;;9.89;57.88
829;BME280;396;52.558;13.188;2024-01-30T12:45:49;102174.34;;;10.08;58.11
829;BME280;396;52.558;13.188;2024-01-30T12:48:16;102170.00;;;10.40;57.95
829;BME280;396;52.558;13.188;2024-01-30T12:50:44;102169.88;;;10.61;56.34
829;BME280;396;52.558;13.188;2024-01-30T12:53:12;102168.44;;;10.49;56.70
829;BME280;396;52.558;13.188;2024-01-30T12:55:39;102162.97;;;10.44;55.98
829;BME280;396;52.558;13.188;2024-01-30T12:58:05;102165.91;;;10.32;56.23
829;BME280;396;52.558;13.188;2024-01-30T13:00:32;102163.25;;;10.10;57.40
829;BME280;396;52.558;13.188;2024-01-30T13:02:59;102156.72;;;10.06;57.35
829;BME280;396;52.558;13.188;2024-01-30T13:05:26;102154.53;;;10.03;57.12
829;BME280;396;52.558;13.188;2024-01-30T13:07:53;102150.94;;;9.92;58.09
829;BME280;396;52.558;13.188;2024-01-30T13:10:22;102153.53;;;9.82;58.09
829;BME280;396;52.558;13.188;2024-01-30T13:12:49;102165.81;;;9.63;58.39
829;BME280;396;52.558;13.188;2024-01-30T13:15:15;102163.56;;;9.54;59.04
829;BME280;396;52.558;13.188;2024-01-30T13:17:42;102157.69;;;9.35;60.57
829;BME280;396;52.558;13.188;2024-01-30T13:20:11;102160.63;;;9.34;60.79
829;BME280;396;52.558;13.188;2024-01-30T13:22:39;102159.22;;;9.26;60.88
829;BME280;396;52.558;13.188;2024-01-30T13:25:06;102151.66;;;9.28;60.62
829;BME280;396;52.558;13.188;2024-01-30T13:27:35;102150.84;;;9.28;60.70
829;BME280;396;52.558;13.188;2024-01-30T13:30:01;102161.38;;;9.29;60.40
829;BME280;396;52.558;13.188;2024-01-30T13:32:29;102162.22;;;9.30;60.51